Grant Co International Airport
KMWH : now visible

Airfield :











YOU CAN JOIN US ON...

 
LOGIN :

Register | Disclaimer

   EN    FR    IT 

 









Legend :    VFR   Marginal VFR   IFR   Intensive IFR   Very Intensive IFR
Visi :
Ceiling :
>= 8 km
>= 3000ft
5 to 8 km
1000 to 3000 ft
1500m to 5 km
500 to 1000 ft
800 to 1500m
200 to 500 ft
< 800m
< 200 ft
Symbols :   Thunderstorms  Fog  Heavy snow  Heavy precipitations  Wind > 20 kt






- Airport Elevation : 1189 ft


KMWH - Grant Co International

CURRENT METAR :
  • 271736Z 14004KT 1/4SM FG VV001 01/M01 A3016 RMK AO2 T00111006 RVRNO

EXPIRED METARs :
  • 271723Z 04003KT 1SM BR VV001 01/M01 A3016 RMK AO2 T00061011 RVRNO
  • 271652Z 00000KT 1/4SM FZFG VV001 M01/M02 A3016 RMK AO2 SLP224 I1000 T10061022 RVRNO
  • 271552Z 00000KT 1/16SM FZFG VV001 M01/M03 A3014 RMK AO2 SLP218 I1000 T10111028 RVRNO
  • 271528Z 00000KT 3/4SM BR VV001 M01/M02 A3013 RMK AO2 I1000 T10061017 RVRNO
  • 271526Z 22003KT 2 1/2SM BR SCT001 M01/M02 A3013 RMK AO2 I1000 T10061017
  • 271452Z 19005KT 1/4SM FG VV001 00/M01 A3012 RMK AO2 SLP209 I1002 I3003 T00001011 53013 RVRNO

TAF KMWH
Valid from the 27 at 18:00 until the 28 at 18:00 UTC


271738Z 2718/2818 00000KT P6SM BCFG SCT001
TEMPO 2718/2719 1SM BR
FM272000 20004KT P6SM BKN150 OVC200
FM280300 12005KT 5SM -RA BR OVC020
FM280600 13006KT 2SM RA BR OVC009
FM281000 15004KT 1SM BR BKN006



MET'MAP, your aeronautical weather chart ! - Copyright ORBIFLY December 2007 - Disclaimer

ORBIFLY MET'MAP TEAM :

Programming & Development : Alexandra Zaïnal
Concept & original design : Baudouin d'Aumeries
Assistance for programming : Marc-Olivier Méhu
Technical & hardware support : Manuel Goepfert

Contact : metmap@orbifly.com




SOURCES & CREDITS :

   NOAA       Earth
Advisory